Aérodrome :
LOGIN :

S'inscrire | Disclaimer

   EN    FR    IT 

 










Légende :    VFR   VFR Marginal   IFR   IFR Intensif   IFR Très Intensif
Visi : 
Plafond : 
>= 8 km
>= 3000ft
5 à 8 km
1000 à 3000 ft
1500m à 5 km
500 à 1000 ft
800 à 1500m
200 à 500 ft
< 800m
< 200 ft
Symboles :   Orages  Brouillard  Fortes neiges  Fortes précipitations  Vent > 20 kt
SIGMETs :   Divers  Orages  Givrage  Turbulence  Onde Orograph.  Cendres Volcan.






- Altitude de l'aérodrome : 362 ft
- Code IATA : WAW


EPWA - Warsaw Okecie

DERNIER METAR :
  • 220930Z 29003KT 240V020 9999 BKN018 23/19 Q1008 NOSIG

METARs EXPIRÉS :
  • 220900Z 23008KT 9999 BKN015 23/19 Q1009 NOSIG
  • 220830Z 19004KT 130V230 9999 BKN022 22/19 Q1009 NOSIG
  • 220800Z 20006KT 170V240 9999 BKN019 20/18 Q1008 NOSIG
  • 220730Z 20006KT 9999 SCT019 SCT050CB 19/17 Q1008 NOSIG
  • 220700Z 12005KT 080V200 9999 -SHRA VCTS BKN040CB 19/17 Q1008 RETS NOSIG
  • 220630Z 17005KT 090V260 9999 -SHRA VCTS FEW015 BKN031CB 19/17 Q1009 NOSIG
  • 220600Z 15011KT 9999 -SHRA FEW020 SCT056CB 20/15 Q1008 TEMPO 1000 +TSRA
  • 220530Z 14011KT 9999 FEW040 21/15 Q1008 TEMPO 1500 TSRA
  • 220500Z 13010KT 9999 FEW040 21/15 Q1008 NOSIG

TAF TAF EPWA
Valide du 22 à 09h jusqu'au 23 à 09h UTC


220830Z 2209/2309 26010KT 9999 SCT040
TEMPO 2209/2216 4000 SHRA BKN030CB
TEMPO 2216/2220 27015G25KT -SHRA SCT040TCU



MET'MAP, la Météo Aéronautique d'un coup d'oeil ! - Copyright ORBIFLY Décembre 2007 - Disclaimer

ORBIFLY MET'MAP TEAM :

Programmation & Développement : Alexandra Zaïnal
Sur une idée originale de : Baudouin d'Aumeries
Soutien technique & logistique : Manuel Goepfert
Assistance : Marc-Olivier Méhu




SOURCES & CREDITS :

   NOAA